Airfield :
LOGIN :

Register | Disclaimer

   EN    FR    IT 

 










Legend :    VFR   Marginal VFR   IFR   Intensive IFR   Very Intensive IFR
Visi :
Ceiling :
>= 8 km
>= 3000ft
5 to 8 km
1000 to 3000 ft
1500m to 5 km
500 to 1000 ft
800 to 1500m
200 to 500 ft
< 800m
< 200 ft
Symbols :   Thunderstorms  Fog  Heavy snow  Heavy precipitations  Wind > 20 kt
SIGMETs :     Misc.  Thunderstorms  Icing  Turbulence  Mountain Waves  Volcanic Ashes






- Airport Elevation : 124 ft
- IATA code : NHT


EGWU - RAF Northolt

CURRENT METAR :
  • 220350Z AUTO 14006KT 9999 // FEW048/// 07/06 Q0995

EXPIRED METARs :
  • 220250Z AUTO 14008KT 4800 // FEW008/// BKN036/// 08/07 Q0996
  • 220150Z AUTO 13007KT 4500 // FEW011/// BKN039/// 08/07 Q0996

TAF TAF EGWU
Valid from the 21 at 18:00 until the 22 at 12:00 UTC


211640Z 2118/2212 11008KT 5000 HZ BKN008
PROB40 2118/2201 BKN006
TEMPO 2119/2201 4000 -RA
BECMG 2201/2203 9999 NSW SCT025
TEMPO 2201/2212 5000 SHRA SCT014



MET'MAP, your aeronautical weather chart ! - Copyright ORBIFLY December 2007 - Disclaimer

ORBIFLY MET'MAP TEAM :

Programming & Development : Alexandra Zaïnal
Concept & Development : Baudouin d'Aumeries
Co-Development & Prog : Marc-Olivier Méhu
Technical & hardware support : Manuel Goepfert

Contact : metmap@orbifly.com




SOURCES & CREDITS :

   NOAA